Time;durP1;ratioP1;P1;durP2;ratioP2;P2;SDS_P1;SDS_P2;PMS_P1;PMS_P2;Temp;Humidity;BMP_temperature;BMP_pressure;BME280_temperature;BME280_humidity;BME280_pressure;Samples;Min_cycle;Max_cycle;Signal;HPM_P1;HPM_P2
2023/12/01 00:00:27;;;;;;;7.10;6.30;;;;;;;;;;6285653;22;20251;-79
2023/12/01 00:02:55;;;;;;;9.25;7.93;;;;;;;;;;6285956;22;20693;-79
2023/12/01 00:05:23;;;;;;;8.30;7.47;;;;;;;;;;6285938;22;20207;-79
2023/12/01 00:07:51;;;;;;;7.10;6.40;;;;;;;;;;6285556;22;20555;-79
2023/12/01 00:10:18;;;;;;;6.82;5.75;;;;;;;;;;6285659;22;20220;-79
2023/12/01 00:12:46;;;;;;;11.10;9.80;;;;;;;;;;6287088;22;20207;-79
2023/12/01 00:15:13;;;;;;;12.50;9.80;;;;;;;;;;6286615;22;20259;-78
2023/12/01 00:17:40;;;;;;;9.52;7.90;;;;;;;;;;6286658;22;20231;-79
2023/12/01 00:20:10;;;;;;;7.90;6.45;;;;;;;;;;6286375;22;20172;-79
2023/12/01 00:22:39;;;;;;;6.35;5.75;;;;;;;;;;6286531;22;20525;-79
2023/12/01 00:25:07;;;;;;;6.93;6.22;;;;;;;;;;6285970;22;20232;-79
2023/12/01 00:27:35;;;;;;;9.40;7.90;;;;;;;;;;6286531;22;20183;-78
2023/12/01 00:30:03;;;;;;;8.15;7.32;;;;;;;;;;6286169;22;20219;-79
2023/12/01 00:32:30;;;;;;;9.70;7.38;;;;;;;;;;6286369;22;20177;-79
2023/12/01 00:34:58;;;;;;;8.00;6.50;;;;;;;;;;6286088;22;20215;-78
2023/12/01 00:37:25;;;;;;;8.00;7.20;;;;;;;;;;6285245;22;20191;-79
2023/12/01 00:39:54;;;;;;;8.38;7.57;;;;;;;;;;6285574;22;20207;-79
2023/12/01 00:42:22;;;;;;;10.15;8.73;;;;;;;;;;6286814;22;20224;-79
2023/12/01 00:44:50;;;;;;;8.35;7.55;;;;;;;;;;6286493;22;20203;-79
2023/12/01 00:47:17;;;;;;;10.35;8.90;;;;;;;;;;6286779;22;20219;-79
2023/12/01 00:49:44;;;;;;;10.60;9.00;;;;;;;;;;6287487;22;20715;-79
2023/12/01 00:52:12;;;;;;;10.35;8.93;;;;;;;;;;6288415;22;20256;-79
2023/12/01 00:54:39;;;;;;;9.02;8.07;;;;;;;;;;6288210;22;20184;-79
2023/12/01 00:57:08;;;;;;;7.30;6.50;;;;;;;;;;6288654;22;20200;-79
2023/12/01 00:59:35;;;;;;;7.95;6.90;;;;;;;;;;6288145;22;20707;-79
2023/12/01 01:02:03;;;;;;;8.05;6.95;;;;;;;;;;6288118;22;20232;-79
2023/12/01 01:04:30;;;;;;;7.85;6.97;;;;;;;;;;6288656;22;20176;-79
2023/12/01 01:06:58;;;;;;;8.65;7.75;;;;;;;;;;6288982;22;20176;-79
2023/12/01 01:09:26;;;;;;;9.25;8.35;;;;;;;;;;6288130;22;20275;-79
2023/12/01 01:11:53;;;;;;;9.02;8.13;;;;;;;;;;6287806;22;20176;-78
2023/12/01 01:14:22;;;;;;;7.97;6.88;;;;;;;;;;6288290;22;20244;-79
2023/12/01 01:16:49;;;;;;;8.55;7.70;;;;;;;;;;6289222;22;20176;-79
2023/12/01 01:19:17;;;;;;;8.48;7.50;;;;;;;;;;6287481;22;20227;-79
2023/12/01 01:21:44;;;;;;;10.10;7.88;;;;;;;;;;6287706;22;20669;-79
2023/12/01 01:24:11;;;;;;;11.02;8.32;;;;;;;;;;6287911;22;20259;-78
2023/12/01 01:26:39;;;;;;;11.13;8.93;;;;;;;;;;6288553;22;20700;-79
2023/12/01 01:29:07;;;;;;;11.07;8.70;;;;;;;;;;6287819;22;20252;-79
2023/12/01 01:31:35;;;;;;;10.35;8.95;;;;;;;;;;6287000;22;20259;-79
2023/12/01 01:34:03;;;;;;;10.27;8.65;;;;;;;;;;6286927;22;20199;-79
2023/12/01 01:36:31;;;;;;;11.20;8.88;;;;;;;;;;6287346;22;20229;-79
2023/12/01 01:38:59;;;;;;;11.60;9.00;;;;;;;;;;6287191;22;20223;-79
2023/12/01 01:41:26;;;;;;;12.15;9.85;;;;;;;;;;6287511;22;20173;-79
2023/12/01 01:43:54;;;;;;;11.50;9.60;;;;;;;;;;6286632;22;20203;-79
2023/12/01 01:46:22;;;;;;;10.60;9.30;;;;;;;;;;6286072;22;20200;-79
2023/12/01 01:48:51;;;;;;;13.13;10.35;;;;;;;;;;6287296;22;20192;-79
2023/12/01 01:51:19;;;;;;;13.93;10.65;;;;;;;;;;6286733;22;20267;-79
2023/12/01 01:53:46;;;;;;;13.25;10.77;;;;;;;;;;6287425;22;20235;-79
2023/12/01 01:56:14;;;;;;;12.77;9.73;;;;;;;;;;6286835;22;20584;-79
2023/12/01 01:58:43;;;;;;;12.30;10.18;;;;;;;;;;6287491;22;20212;-79
2023/12/01 02:01:11;;;;;;;10.80;8.68;;;;;;;;;;6287995;22;20180;-79
2023/12/01 02:03:40;;;;;;;11.65;9.50;;;;;;;;;;6288046;22;20660;-78
2023/12/01 02:06:09;;;;;;;11.75;9.98;;;;;;;;;;6287443;22;20207;-79
2023/12/01 02:08:37;;;;;;;10.38;8.50;;;;;;;;;;6287751;22;20248;-79
2023/12/01 02:11:04;;;;;;;13.05;9.80;;;;;;;;;;6286344;22;20252;-79
2023/12/01 02:13:32;;;;;;;10.63;9.18;;;;;;;;;;6286918;22;20227;-79
2023/12/01 02:15:59;;;;;;;7.35;6.65;;;;;;;;;;6287597;22;20200;-79
2023/12/01 02:18:29;;;;;;;10.35;9.00;;;;;;;;;;6287293;22;20575;-79
2023/12/01 02:20:58;;;;;;;8.15;7.35;;;;;;;;;;6287105;22;20179;-79
2023/12/01 02:23:27;;;;;;;13.77;10.10;;;;;;;;;;6287584;22;20203;-79
2023/12/01 02:25:55;;;;;;;12.32;10.48;;;;;;;;;;6287507;22;20184;-78
2023/12/01 02:28:22;;;;;;;12.05;10.15;;;;;;;;;;6287449;22;20248;-79
2023/12/01 02:30:53;;;;;;;10.70;9.35;;;;;;;;;;6286953;22;20275;-79
2023/12/01 02:33:21;;;;;;;14.55;10.30;;;;;;;;;;6286754;22;20624;-79
2023/12/01 02:35:50;;;;;;;13.32;11.38;;;;;;;;;;6287255;22;20215;-79
2023/12/01 02:38:18;;;;;;;15.57;11.73;;;;;;;;;;6287608;22;20219;-79
2023/12/01 02:40:49;;;;;;;12.95;10.95;;;;;;;;;;6287173;22;20204;-79
2023/12/01 02:43:17;;;;;;;15.20;12.15;;;;;;;;;;6287375;22;20187;-79
2023/12/01 02:45:44;;;;;;;12.70;11.25;;;;;;;;;;6287586;22;20180;-78
2023/12/01 02:48:12;;;;;;;14.95;12.40;;;;;;;;;;6286979;22;20222;-79
2023/12/01 02:50:40;;;;;;;14.30;10.75;;;;;;;;;;6286442;22;20216;-78
2023/12/01 02:53:08;;;;;;;19.33;13.25;;;;;;;;;;6286201;22;20208;-79
2023/12/01 02:55:36;;;;;;;15.95;12.18;;;;;;;;;;6287522;22;20209;-78
2023/12/01 02:58:05;;;;;;;20.02;11.23;;;;;;;;;;6287517;22;20224;-79
2023/12/01 03:00:32;;;;;;;15.13;12.48;;;;;;;;;;6286527;22;20251;-79
2023/12/01 03:03:00;;;;;;;14.50;11.57;;;;;;;;;;6287292;22;20200;-79
2023/12/01 03:05:27;;;;;;;18.67;13.90;;;;;;;;;;6286208;22;20200;-78
2023/12/01 03:07:54;;;;;;;18.38;13.63;;;;;;;;;;6286681;22;20276;-78
2023/12/01 03:10:23;;;;;;;19.50;13.70;;;;;;;;;;6287064;22;20652;-79
2023/12/01 03:12:50;;;;;;;14.38;10.77;;;;;;;;;;6287373;22;20195;-79
2023/12/01 03:15:20;;;;;;;17.40;12.68;;;;;;;;;;6286466;22;20697;-78
2023/12/01 03:17:48;;;;;;;16.27;12.43;;;;;;;;;;6287647;22;20203;-79
2023/12/01 03:20:17;;;;;;;14.98;10.93;;;;;;;;;;6286275;22;20230;-79
2023/12/01 03:22:46;;;;;;;13.88;10.35;;;;;;;;;;6286385;22;20188;-79
2023/12/01 03:25:13;;;;;;;13.95;11.40;;;;;;;;;;6287203;22;20177;-79
2023/12/01 03:27:42;;;;;;;15.70;11.68;;;;;;;;;;6287022;22;20211;-79
2023/12/01 03:30:14;;;;;;;14.48;11.43;;;;;;;;;;6286787;22;20173;-79
2023/12/01 03:32:48;;;;;;;16.67;12.43;;;;;;;;;;6286979;22;20157;-79
2023/12/01 03:35:17;;;;;;;18.58;13.15;;;;;;;;;;6287437;22;20185;-79
2023/12/01 03:37:46;;;;;;;20.45;13.48;;;;;;;;;;6287385;22;20269;-79
2023/12/01 03:40:13;;;;;;;15.55;12.05;;;;;;;;;;6287275;22;20308;-79
2023/12/01 03:42:43;;;;;;;19.23;13.50;;;;;;;;;;6287079;22;20203;-79
2023/12/01 03:45:12;;;;;;;16.67;12.77;;;;;;;;;;6287483;22;20208;-79
2023/12/01 03:47:40;;;;;;;14.52;11.43;;;;;;;;;;6286923;22;20176;-79
2023/12/01 03:50:12;;;;;;;16.45;12.15;;;;;;;;;;6286683;22;20195;-79
2023/12/01 03:52:42;;;;;;;16.13;11.63;;;;;;;;;;6287885;22;20578;-79
2023/12/01 03:55:11;;;;;;;14.93;11.75;;;;;;;;;;6287360;22;20182;-79
2023/12/01 03:57:38;;;;;;;15.70;12.10;;;;;;;;;;6287741;22;20235;-79
2023/12/01 04:00:09;;;;;;;15.55;12.10;;;;;;;;;;6287148;22;20215;-79
2023/12/01 04:02:41;;;;;;;19.30;11.70;;;;;;;;;;6286378;22;20183;-79
2023/12/01 04:05:17;;;;;;;19.08;12.82;;;;;;;;;;6286852;22;20176;-79
2023/12/01 04:07:45;;;;;;;14.82;10.63;;;;;;;;;;6286516;22;20593;-79
2023/12/01 04:10:13;;;;;;;15.38;11.55;;;;;;;;;;6285040;22;20179;-79
2023/12/01 04:12:44;;;;;;;15.70;12.15;;;;;;;;;;6284814;22;20204;-79
2023/12/01 04:15:16;;;;;;;18.17;11.75;;;;;;;;;;6286615;22;20526;-79
2023/12/01 04:17:45;;;;;;;13.57;9.77;;;;;;;;;;6285964;22;20690;-79
2023/12/01 04:20:22;;;;;;;13.30;9.68;;;;;;;;;;6285447;22;20218;-78
2023/12/01 04:22:51;;;;;;;13.25;9.55;;;;;;;;;;6285655;22;20176;-79
2023/12/01 04:25:19;;;;;;;12.85;9.85;;;;;;;;;;6286817;22;20211;-79
2023/12/01 04:27:47;;;;;;;14.35;10.02;;;;;;;;;;6286998;22;20703;-79
2023/12/01 04:30:16;;;;;;;10.35;9.00;;;;;;;;;;6285919;22;20200;-79
2023/12/01 04:32:45;;;;;;;12.13;9.02;;;;;;;;;;6284097;22;20232;-78
2023/12/01 04:35:15;;;;;;;16.42;10.55;;;;;;;;;;6284711;22;20216;-78
2023/12/01 04:37:42;;;;;;;11.43;8.77;;;;;;;;;;6284251;22;20176;-79
2023/12/01 04:40:14;;;;;;;13.63;9.68;;;;;;;;;;6284107;22;20322;-79
2023/12/01 04:42:45;;;;;;;11.60;9.07;;;;;;;;;;6284247;22;20159;-79
2023/12/01 04:45:13;;;;;;;12.57;9.13;;;;;;;;;;6284555;22;20602;-78
2023/12/01 04:47:41;;;;;;;12.00;8.52;;;;;;;;;;6283691;22;20199;-78
2023/12/01 04:50:13;;;;;;;10.55;9.02;;;;;;;;;;6280744;22;20215;-78
2023/12/01 04:52:44;;;;;;;7.70;6.60;;;;;;;;;;6282179;22;20653;-79
2023/12/01 04:55:13;;;;;;;7.40;5.85;;;;;;;;;;6283499;22;20184;-79
2023/12/01 04:57:40;;;;;;;5.78;4.22;;;;;;;;;;6284846;22;20183;-79
2023/12/01 05:00:20;;;;;;;4.97;4.47;;;;;;;;;;6283415;22;20259;-78
2023/12/01 05:02:49;;;;;;;6.55;5.50;;;;;;;;;;6284344;22;20157;-79
2023/12/01 05:05:18;;;;;;;4.88;4.40;;;;;;;;;;6284174;22;20184;-78
2023/12/01 05:07:49;;;;;;;3.45;3.15;;;;;;;;;;6283764;22;20228;-79
2023/12/01 05:10:17;;;;;;;4.28;3.88;;;;;;;;;;6283622;22;20164;-78
2023/12/01 05:12:49;;;;;;;7.70;6.78;;;;;;;;;;6283281;22;20724;-79
2023/12/01 05:15:18;;;;;;;7.68;6.88;;;;;;;;;;6283936;22;20165;-79
2023/12/01 05:17:47;;;;;;;6.80;5.88;;;;;;;;;;6283663;22;20689;-78
2023/12/01 05:20:18;;;;;;;11.93;7.93;;;;;;;;;;6282635;22;20204;-79
2023/12/01 05:22:48;;;;;;;10.82;7.90;;;;;;;;;;6283025;22;20181;-78
2023/12/01 05:25:17;;;;;;;10.95;8.35;;;;;;;;;;6284098;22;20196;-79
2023/12/01 05:27:47;;;;;;;9.52;7.88;;;;;;;;;;6283242;22;20248;-78
2023/12/01 05:30:16;;;;;;;13.68;9.80;;;;;;;;;;6283184;22;20176;-78
2023/12/01 05:32:44;;;;;;;14.98;11.23;;;;;;;;;;6282982;22;20688;-78
2023/12/01 05:35:13;;;;;;;20.73;14.60;;;;;;;;;;6282588;22;20172;-78
2023/12/01 05:37:47;;;;;;;17.02;12.55;;;;;;;;;;6282806;22;20231;-79
2023/12/01 05:40:20;;;;;;;17.17;12.70;;;;;;;;;;6282366;22;20817;-78
2023/12/01 05:42:49;;;;;;;17.13;12.40;;;;;;;;;;6282369;22;20164;-79
2023/12/01 05:45:17;;;;;;;15.80;12.73;;;;;;;;;;6281990;22;20624;-79
2023/12/01 05:47:47;;;;;;;19.95;12.93;;;;;;;;;;6281251;22;20230;-78
2023/12/01 05:50:16;;;;;;;17.10;12.90;;;;;;;;;;6281014;22;20231;-78
2023/12/01 05:52:45;;;;;;;20.15;13.98;;;;;;;;;;6282160;22;20231;-78
2023/12/01 05:55:15;;;;;;;20.60;14.73;;;;;;;;;;6281757;22;20574;-79
2023/12/01 05:57:44;;;;;;;20.10;13.57;;;;;;;;;;6282613;22;20192;-79
2023/12/01 06:00:15;;;;;;;21.50;14.00;;;;;;;;;;6280813;22;20219;-78
2023/12/01 06:02:43;;;;;;;16.80;12.23;;;;;;;;;;6281098;22;20157;-78
2023/12/01 06:05:12;;;;;;;20.98;13.77;;;;;;;;;;6281039;22;20621;-78
2023/12/01 06:07:43;;;;;;;18.95;13.32;;;;;;;;;;6280790;22;20195;-78
2023/12/01 06:10:11;;;;;;;18.00;13.10;;;;;;;;;;6280594;22;20168;-79
2023/12/01 06:12:40;;;;;;;19.38;13.20;;;;;;;;;;6280849;22;20234;-78
2023/12/01 06:15:10;;;;;;;17.20;12.18;;;;;;;;;;6280933;22;20617;-78
2023/12/01 06:17:37;;;;;;;17.40;12.35;;;;;;;;;;6280079;22;20180;-78
2023/12/01 06:20:16;;;;;;;20.42;14.05;;;;;;;;;;6279542;22;20180;-78
2023/12/01 06:22:45;;;;;;;17.88;12.85;;;;;;;;;;6279902;22;20176;-78
2023/12/01 06:25:13;;;;;;;18.40;12.60;;;;;;;;;;6279820;22;20176;-78
2023/12/01 06:27:42;;;;;;;14.27;11.10;;;;;;;;;;6280227;22;20240;-78
2023/12/01 06:30:11;;;;;;;18.80;13.10;;;;;;;;;;6279580;22;20177;-78
2023/12/01 06:32:40;;;;;;;24.17;15.90;;;;;;;;;;6280129;22;20197;-78
2023/12/01 06:35:11;;;;;;;19.75;13.50;;;;;;;;;;6280524;22;20204;-78
2023/12/01 06:37:38;;;;;;;18.02;12.32;;;;;;;;;;6280208;22;20165;-78
2023/12/01 06:40:11;;;;;;;19.45;12.63;;;;;;;;;;6279414;22;20176;-78
2023/12/01 06:42:42;;;;;;;21.20;14.27;;;;;;;;;;6279567;22;20160;-78
2023/12/01 06:45:11;;;;;;;21.90;13.73;;;;;;;;;;6278944;22;20168;-78
2023/12/01 06:47:40;;;;;;;20.42;12.38;;;;;;;;;;6278949;22;20172;-78
2023/12/01 06:50:10;;;;;;;22.40;14.57;;;;;;;;;;6279102;22;20613;-77
2023/12/01 06:52:39;;;;;;;23.17;13.57;;;;;;;;;;6279263;22;20192;-77
2023/12/01 06:55:08;;;;;;;21.52;13.65;;;;;;;;;;6279907;22;20236;-78
2023/12/01 06:57:38;;;;;;;21.95;13.38;;;;;;;;;;6279696;22;20208;-78
2023/12/01 07:00:09;;;;;;;19.35;12.57;;;;;;;;;;6279903;22;20165;-78
2023/12/01 07:02:38;;;;;;;20.08;12.63;;;;;;;;;;6278864;22;20168;-76
2023/12/01 07:05:07;;;;;;;17.73;11.73;;;;;;;;;;6278915;22;20266;-78
2023/12/01 07:07:37;;;;;;;19.75;11.77;;;;;;;;;;6278663;22;20542;-78
2023/12/01 07:10:06;;;;;;;18.67;12.30;;;;;;;;;;6279299;22;20176;-78
2023/12/01 07:12:34;;;;;;;19.67;12.88;;;;;;;;;;6279432;22;20647;-79
2023/12/01 07:15:02;;;;;;;20.63;12.50;;;;;;;;;;6279646;22;20506;-78
2023/12/01 07:17:31;;;;;;;17.60;11.80;;;;;;;;;;6279096;22;20176;-78
2023/12/01 07:19:59;;;;;;;15.85;10.52;;;;;;;;;;6278934;22;20203;-78
2023/12/01 07:22:26;;;;;;;18.55;10.82;;;;;;;;;;6279316;22;20525;-78
2023/12/01 07:24:54;;;;;;;14.10;9.82;;;;;;;;;;6279345;22;20199;-78
2023/12/01 07:27:25;;;;;;;21.42;12.30;;;;;;;;;;6279003;22;20203;-78
2023/12/01 07:29:53;;;;;;;18.58;12.27;;;;;;;;;;6278782;22;20163;-78
2023/12/01 07:32:20;;;;;;;15.45;10.40;;;;;;;;;;6278906;22;20241;-78
2023/12/01 07:34:49;;;;;;;18.77;11.30;;;;;;;;;;6278316;22;20563;-78
2023/12/01 07:37:16;;;;;;;17.33;11.63;;;;;;;;;;6278146;22;20200;-78
2023/12/01 07:39:44;;;;;;;17.23;10.75;;;;;;;;;;6277947;22;20196;-78
2023/12/01 07:42:12;;;;;;;17.45;10.48;;;;;;;;;;6278887;22;20504;-78
2023/12/01 07:44:39;;;;;;;13.82;9.77;;;;;;;;;;6278420;22;20200;-78
2023/12/01 07:47:11;;;;;;;18.45;10.95;;;;;;;;;;6278154;22;20640;-78
2023/12/01 07:49:39;;;;;;;16.63;10.55;;;;;;;;;;6278679;22;20199;-78
2023/12/01 07:52:08;;;;;;;17.55;10.52;;;;;;;;;;6279049;22;20172;-78
2023/12/01 07:54:36;;;;;;;14.38;11.40;;;;;;;;;;6278849;22;20192;-78
2023/12/01 07:57:04;;;;;;;14.25;10.70;;;;;;;;;;6279366;22;20592;-78
2023/12/01 07:59:32;;;;;;;18.25;12.05;;;;;;;;;;6278443;22;20196;-78
2023/12/01 08:01:59;;;;;;;16.02;10.57;;;;;;;;;;6278720;22;20176;-78
2023/12/01 08:04:27;;;;;;;17.00;10.93;;;;;;;;;;6278450;22;20227;-78
2023/12/01 08:06:55;;;;;;;19.27;11.35;;;;;;;;;;6277610;22;20200;-78
2023/12/01 08:09:24;;;;;;;17.55;10.90;;;;;;;;;;6278563;22;20669;-78
2023/12/01 08:11:52;;;;;;;18.85;12.05;;;;;;;;;;6278824;22;20251;-78
2023/12/01 08:14:19;;;;;;;22.70;14.02;;;;;;;;;;6278795;22;20202;-78
2023/12/01 08:16:47;;;;;;;18.00;11.40;;;;;;;;;;6278155;22;20692;-78
2023/12/01 08:19:14;;;;;;;16.15;10.63;;;;;;;;;;6278266;22;20196;-78
2023/12/01 08:21:41;;;;;;;20.65;12.63;;;;;;;;;;6278574;22;20267;-78
2023/12/01 08:24:09;;;;;;;20.90;11.75;;;;;;;;;;6277506;22;20283;-78
2023/12/01 08:26:38;;;;;;;19.25;11.90;;;;;;;;;;6278198;22;20199;-78
2023/12/01 08:29:06;;;;;;;18.38;10.77;;;;;;;;;;6277736;22;20200;-78
2023/12/01 08:31:33;;;;;;;15.52;10.43;;;;;;;;;;6278537;22;20255;-78
2023/12/01 08:34:01;;;;;;;19.27;12.70;;;;;;;;;;6278273;22;20279;-78
2023/12/01 08:36:29;;;;;;;17.33;11.95;;;;;;;;;;6278416;22;20172;-78
2023/12/01 08:38:56;;;;;;;16.27;12.55;;;;;;;;;;6277740;22;20665;-77
2023/12/01 08:41:24;;;;;;;20.88;13.30;;;;;;;;;;6277797;22;20256;-78
2023/12/01 08:43:53;;;;;;;19.20;12.73;;;;;;;;;;6278508;22;20179;-78
2023/12/01 08:46:20;;;;;;;18.60;11.95;;;;;;;;;;6278535;22;20232;-78
2023/12/01 08:48:47;;;;;;;20.35;12.88;;;;;;;;;;6278192;22;20271;-78
2023/12/01 08:51:15;;;;;;;24.73;13.75;;;;;;;;;;6278105;22;20172;-78
2023/12/01 08:53:42;;;;;;;18.98;12.00;;;;;;;;;;6278036;22;20579;-78
2023/12/01 08:56:10;;;;;;;19.95;11.93;;;;;;;;;;6278543;22;20215;-78
2023/12/01 08:58:38;;;;;;;19.73;11.95;;;;;;;;;;6279150;22;20193;-78
2023/12/01 09:01:08;;;;;;;26.15;14.52;;;;;;;;;;6277771;22;20179;-78
2023/12/01 09:03:35;;;;;;;22.85;15.40;;;;;;;;;;6279470;22;20683;-78
2023/12/01 09:06:04;;;;;;;21.95;12.95;;;;;;;;;;6278876;22;20251;-78
2023/12/01 09:08:32;;;;;;;22.40;15.10;;;;;;;;;;6279065;22;20250;-78
2023/12/01 09:10:59;;;;;;;21.88;14.10;;;;;;;;;;6280606;22;20176;-78
2023/12/01 09:13:27;;;;;;;21.90;14.00;;;;;;;;;;6280452;22;20207;-78
2023/12/01 09:15:55;;;;;;;22.98;13.85;;;;;;;;;;6280538;22;20192;-78
2023/12/01 09:18:23;;;;;;;22.73;13.23;;;;;;;;;;6280197;22;20204;-78
2023/12/01 09:20:51;;;;;;;21.73;15.15;;;;;;;;;;6280025;22;20179;-78
2023/12/01 09:23:19;;;;;;;27.15;15.85;;;;;;;;;;6279706;22;20260;-78
2023/12/01 09:25:47;;;;;;;22.70;13.82;;;;;;;;;;6280521;22;20175;-78
2023/12/01 09:28:14;;;;;;;22.70;15.23;;;;;;;;;;6279644;22;20193;-78
2023/12/01 09:30:41;;;;;;;22.73;13.40;;;;;;;;;;6280022;22;20783;-78
2023/12/01 09:33:09;;;;;;;21.17;13.73;;;;;;;;;;6280280;22;20176;-78
2023/12/01 09:35:38;;;;;;;24.17;15.43;;;;;;;;;;6281011;22;20303;-78
2023/12/01 09:38:06;;;;;;;19.98;13.65;;;;;;;;;;6280862;22;20575;-78
2023/12/01 09:40:38;;;;;;;23.80;13.38;;;;;;;;;;6280526;22;20232;-78
2023/12/01 09:43:08;;;;;;;22.02;13.95;;;;;;;;;;6281001;22;20608;-78
2023/12/01 09:45:35;;;;;;;25.67;15.48;;;;;;;;;;6280960;22;20173;-78
2023/12/01 09:48:05;;;;;;;19.60;12.68;;;;;;;;;;6281127;22;20227;-78
2023/12/01 09:50:32;;;;;;;22.02;13.77;;;;;;;;;;6281349;22;20179;-78
2023/12/01 09:53:01;;;;;;;27.63;15.43;;;;;;;;;;6281384;22;20180;-78
2023/12/01 09:55:29;;;;;;;26.40;17.70;;;;;;;;;;6282110;22;20192;-78
2023/12/01 09:57:58;;;;;;;28.25;17.35;;;;;;;;;;6281222;22;20223;-78
2023/12/01 10:00:25;;;;;;;29.58;19.17;;;;;;;;;;6281518;22;20203;-78
2023/12/01 10:02:53;;;;;;;22.83;15.60;;;;;;;;;;6281667;22;20242;-78
2023/12/01 10:05:20;;;;;;;23.33;16.35;;;;;;;;;;6281953;22;20247;-78
2023/12/01 10:07:50;;;;;;;26.60;15.52;;;;;;;;;;6280626;22;20271;-78
2023/12/01 10:10:21;;;;;;;25.83;14.35;;;;;;;;;;6280951;22;20484;-78
2023/12/01 10:12:59;;;;;;;25.27;14.15;;;;;;;;;;6281567;22;20550;-78
2023/12/01 10:15:28;;;;;;;20.58;15.27;;;;;;;;;;6281366;22;20196;-78
2023/12/01 10:18:10;;;;;;;21.15;14.85;;;;;;;;;;6280765;22;20192;-78
2023/12/01 10:20:39;;;;;;;24.23;15.32;;;;;;;;;;6281151;22;20161;-78
2023/12/01 10:23:18;;;;;;;24.60;16.77;;;;;;;;;;6281035;22;20583;-78
2023/12/01 10:25:50;;;;;;;21.88;13.25;;;;;;;;;;6281268;22;20157;-77
2023/12/01 10:28:17;;;;;;;21.25;13.95;;;;;;;;;;6281440;22;20216;-78
2023/12/01 10:30:56;;;;;;;22.90;16.17;;;;;;;;;;6280521;22;20172;-78
2023/12/01 10:33:24;;;;;;;22.85;14.82;;;;;;;;;;6281506;22;20340;-78
2023/12/01 10:36:03;;;;;;;21.15;13.20;;;;;;;;;;6280535;22;20280;-78
2023/12/01 10:38:33;;;;;;;19.65;14.25;;;;;;;;;;6281558;22;20203;-77
2023/12/01 10:41:04;;;;;;;23.05;15.35;;;;;;;;;;6281633;22;20177;-78
2023/12/01 10:43:32;;;;;;;19.15;14.10;;;;;;;;;;6281376;22;20160;-78
2023/12/01 10:46:02;;;;;;;22.77;14.70;;;;;;;;;;6281910;22;20196;-79
2023/12/01 10:48:32;;;;;;;23.45;16.02;;;;;;;;;;6281986;22;20193;-78
2023/12/01 10:51:01;;;;;;;17.05;13.15;;;;;;;;;;6280208;22;20233;-78
2023/12/01 10:53:30;;;;;;;18.70;12.52;;;;;;;;;;6281843;22;20199;-78
2023/12/01 10:56:04;;;;;;;17.55;12.18;;;;;;;;;;6282316;22;20704;-78
2023/12/01 10:58:35;;;;;;;16.40;13.20;;;;;;;;;;6281991;22;20583;-79
2023/12/01 11:01:03;;;;;;;15.48;12.20;;;;;;;;;;6281736;22;20157;-79
2023/12/01 11:03:34;;;;;;;18.73;12.88;;;;;;;;;;6282654;22;20247;-79
2023/12/01 11:06:04;;;;;;;16.05;12.32;;;;;;;;;;6282277;22;20156;-79
2023/12/01 11:08:43;;;;;;;15.48;11.07;;;;;;;;;;6282831;22;20279;-79
2023/12/01 11:11:21;;;;;;;14.80;10.68;;;;;;;;;;6282844;22;20164;-79
2023/12/01 11:14:11;;;;;;;14.02;10.82;;;;;;;;;;6282779;22;20230;-79
2023/12/01 11:16:39;;;;;;;16.10;10.43;;;;;;;;;;6282594;22;20208;-78
2023/12/01 11:19:09;;;;;;;14.35;10.25;;;;;;;;;;6281320;22;20279;-79
2023/12/01 11:21:36;;;;;;;14.57;9.63;;;;;;;;;;6282079;22;20187;-79
2023/12/01 11:24:31;;;;;;;15.38;10.80;;;;;;;;;;6282663;22;20584;-79
2023/12/01 11:27:04;;;;;;;13.65;9.48;;;;;;;;;;6283111;22;20164;-79
2023/12/01 11:29:34;;;;;;;12.38;8.88;;;;;;;;;;6282751;22;20196;-79
2023/12/01 11:32:03;;;;;;;13.38;8.68;;;;;;;;;;6282725;22;20161;-79
2023/12/01 11:34:31;;;;;;;12.95;8.50;;;;;;;;;;6283645;22;20255;-79
2023/12/01 11:37:00;;;;;;;9.80;7.05;;;;;;;;;;6283244;22;20710;-79
2023/12/01 11:39:29;;;;;;;9.30;7.28;;;;;;;;;;6283307;22;20200;-78
2023/12/01 11:42:14;;;;;;;11.93;8.35;;;;;;;;;;6283264;22;20182;-79
2023/12/01 11:44:43;;;;;;;12.10;9.15;;;;;;;;;;6282591;22;20207;-79
2023/12/01 11:47:13;;;;;;;10.88;8.98;;;;;;;;;;6282630;22;20180;-79
2023/12/01 11:49:43;;;;;;;11.48;8.45;;;;;;;;;;6283509;22;20660;-78
2023/12/01 11:52:14;;;;;;;10.35;7.95;;;;;;;;;;6283150;22;20710;-79
2023/12/01 11:54:43;;;;;;;10.02;7.28;;;;;;;;;;6283130;22;20160;-79
2023/12/01 11:57:12;;;;;;;9.77;7.47;;;;;;;;;;6283687;22;20192;-79
2023/12/01 11:59:41;;;;;;;9.77;7.32;;;;;;;;;;6283143;22;20192;-79
2023/12/01 12:02:09;;;;;;;9.07;6.65;;;;;;;;;;6282337;22;20172;-79
2023/12/01 12:04:37;;;;;;;8.73;6.90;;;;;;;;;;6283486;22;20218;-79
2023/12/01 12:07:05;;;;;;;8.25;6.05;;;;;;;;;;6283411;22;20172;-79
2023/12/01 12:09:35;;;;;;;6.22;5.05;;;;;;;;;;6282497;22;20270;-79
2023/12/01 12:12:05;;;;;;;6.03;4.85;;;;;;;;;;6282911;22;20255;-79
2023/12/01 12:14:35;;;;;;;6.72;5.00;;;;;;;;;;6283179;22;20228;-79
2023/12/01 12:17:04;;;;;;;6.47;5.15;;;;;;;;;;6282421;22;20187;-79
2023/12/01 12:19:42;;;;;;;9.65;4.90;;;;;;;;;;6281832;22;20200;-78
2023/12/01 12:22:09;;;;;;;7.13;5.57;;;;;;;;;;6282311;22;20161;-79
2023/12/01 12:24:37;;;;;;;7.18;4.88;;;;;;;;;;6281636;22;20266;-79
2023/12/01 12:27:04;;;;;;;7.47;6.30;;;;;;;;;;6282897;22;20254;-79
2023/12/01 12:29:34;;;;;;;9.90;5.43;;;;;;;;;;6282191;22;20231;-79
2023/12/01 12:32:03;;;;;;;8.40;5.95;;;;;;;;;;6281379;22;20226;-78
2023/12/01 12:34:31;;;;;;;7.07;5.57;;;;;;;;;;6282705;22;20171;-79
2023/12/01 12:36:58;;;;;;;6.85;5.05;;;;;;;;;;6281367;22;20251;-79
2023/12/01 12:39:30;;;;;;;5.05;4.55;;;;;;;;;;6282456;22;20252;-78
2023/12/01 12:41:59;;;;;;;5.63;4.90;;;;;;;;;;6282670;22;20500;-78
2023/12/01 12:44:30;;;;;;;6.38;5.72;;;;;;;;;;6283228;22;20237;-79
2023/12/01 12:47:03;;;;;;;8.80;6.32;;;;;;;;;;6283301;22;20157;-78
2023/12/01 12:49:34;;;;;;;6.82;6.05;;;;;;;;;;6283420;22;20204;-79
2023/12/01 12:52:02;;;;;;;7.18;6.07;;;;;;;;;;6283993;22;20578;-79
2023/12/01 12:54:30;;;;;;;10.05;6.13;;;;;;;;;;6283772;22;20251;-79
2023/12/01 12:56:58;;;;;;;6.60;5.90;;;;;;;;;;6284232;22;20196;-79
2023/12/01 12:59:25;;;;;;;5.90;5.30;;;;;;;;;;6285256;22;20196;-78
2023/12/01 13:01:53;;;;;;;6.68;5.10;;;;;;;;;;6284108;22;20251;-79
2023/12/01 13:04:21;;;;;;;7.38;5.53;;;;;;;;;;6284616;22;20183;-79
2023/12/01 13:06:50;;;;;;;8.05;6.13;;;;;;;;;;6284424;22;20251;-79
2023/12/01 13:09:17;;;;;;;9.02;7.15;;;;;;;;;;6284088;22;20518;-79
2023/12/01 13:11:45;;;;;;;12.30;7.97;;;;;;;;;;6283425;22;20200;-79
2023/12/01 13:14:13;;;;;;;9.35;7.63;;;;;;;;;;6284319;22;20255;-79
2023/12/01 13:16:41;;;;;;;8.52;6.03;;;;;;;;;;6283887;22;20201;-78
2023/12/01 13:19:08;;;;;;;10.05;6.32;;;;;;;;;;6282800;22;20229;-79
2023/12/01 13:21:36;;;;;;;8.02;6.25;;;;;;;;;;6283029;22;20207;-79
2023/12/01 13:24:06;;;;;;;8.13;5.97;;;;;;;;;;6282922;22;20184;-78
2023/12/01 13:26:34;;;;;;;9.32;6.32;;;;;;;;;;6283911;22;20559;-79
2023/12/01 13:29:02;;;;;;;7.65;5.97;;;;;;;;;;6282569;22;20194;-78
2023/12/01 13:31:29;;;;;;;8.02;6.60;;;;;;;;;;6281732;22;20204;-79
2023/12/01 13:33:56;;;;;;;6.72;6.03;;;;;;;;;;6282946;22;20251;-78
2023/12/01 13:36:24;;;;;;;7.63;5.88;;;;;;;;;;6282475;22;20252;-79
2023/12/01 13:38:53;;;;;;;7.97;6.10;;;;;;;;;;6282445;22;20219;-78
2023/12/01 13:41:22;;;;;;;8.13;6.00;;;;;;;;;;6282837;22;20183;-79
2023/12/01 13:43:51;;;;;;;10.68;6.45;;;;;;;;;;6281802;22;20208;-80
2023/12/01 13:46:18;;;;;;;11.18;8.05;;;;;;;;;;6284970;22;20173;-79
2023/12/01 13:48:46;;;;;;;6.32;5.72;;;;;;;;;;6284981;22;20275;-79
2023/12/01 13:51:14;;;;;;;7.00;5.03;;;;;;;;;;6284366;22;20207;-79
2023/12/01 13:53:41;;;;;;;5.32;4.55;;;;;;;;;;6284227;22;20251;-79
2023/12/01 13:56:10;;;;;;;4.95;4.40;;;;;;;;;;6285523;22;20258;-78
2023/12/01 13:58:40;;;;;;;7.38;6.55;;;;;;;;;;6285480;22;20200;-79
2023/12/01 14:01:08;;;;;;;9.82;8.82;;;;;;;;;;6284645;22;20176;-79
2023/12/01 14:03:36;;;;;;;10.52;8.52;;;;;;;;;;6284688;22;20227;-79
2023/12/01 14:06:03;;;;;;;5.95;5.38;;;;;;;;;;6284648;22;20183;-79
2023/12/01 14:08:31;;;;;;;7.82;6.78;;;;;;;;;;6284584;22;20272;-79
2023/12/01 14:10:58;;;;;;;11.45;6.88;;;;;;;;;;6284825;22;20227;-79
2023/12/01 14:13:26;;;;;;;13.85;12.30;;;;;;;;;;6284371;22;20228;-79
2023/12/01 14:15:54;;;;;;;6.80;5.88;;;;;;;;;;6285011;22;20199;-79
2023/12/01 14:18:22;;;;;;;5.70;5.07;;;;;;;;;;6284648;22;20279;-79
2023/12/01 14:20:49;;;;;;;9.45;6.88;;;;;;;;;;6283720;22;20252;-79
2023/12/01 14:23:17;;;;;;;6.65;5.82;;;;;;;;;;6284326;22;20184;-79
2023/12/01 14:25:44;;;;;;;10.48;8.13;;;;;;;;;;6283512;22;20196;-79
2023/12/01 14:28:12;;;;;;;10.73;8.23;;;;;;;;;;6283844;22;20239;-79
2023/12/01 14:30:39;;;;;;;10.95;9.70;;;;;;;;;;6283655;22;20259;-79
2023/12/01 14:33:08;;;;;;;8.10;6.78;;;;;;;;;;6283889;22;20762;-79
2023/12/01 14:35:34;;;;;;;12.93;7.38;;;;;;;;;;6284028;22;20260;-79